Open Full Screen Window  High Contrast Mode
April 24, 2014 1:45 AM EDT
Weather Information
Wind Direction
  ---
Wind Speed
  00 kt (0 mph)
Wind Gust
  00 kt (0 mph)
Altimeter
30.12 in
Visibility
10 SM
Temperature
02° C
36° F
Dewpoint
-02° C
28° F
Humidity
75%
1hr Rain Fall
00.00 in.
24hr Rain Fall
00.00 in.
Sky Condition
Clear
VFR

METAR KIKW 240545Z AUTO 00000KT 10SM CLR 02/M02 A3012 RMK AO2 T00161022

*Background is not an actual portrayal of the airport.